Time;durP1;ratioP1;P1;durP2;ratioP2;P2;SDS_P1;SDS_P2;PMS_P1;PMS_P2;Temp;Humidity;BMP_temperature;BMP_pressure;BME280_temperature;BME280_humidity;BME280_pressure;Samples;Min_cycle;Max_cycle;Signal;HPM_P1;HPM_P2
2021/11/24 00:01:54;;;;;;;44.85;26.42;;;8.00;99.90;;;;;;4964757;28;20418;-81
2021/11/24 00:04:19;;;;;;;45.72;27.33;;;8.00;99.90;;;;;;4971572;28;20410;-82
2021/11/24 00:06:45;;;;;;;45.58;26.48;;;8.00;99.90;;;;;;4984636;28;20396;-82
2021/11/24 00:09:11;;;;;;;40.70;25.60;;;8.00;99.90;;;;;;4971864;28;20406;-81
2021/11/24 00:11:36;;;;;;;40.53;24.83;;;8.00;99.90;;;;;;4972725;28;20399;-82
2021/11/24 00:14:02;;;;;;;41.33;25.23;;;8.00;99.90;;;;;;4987400;28;20755;-82
2021/11/24 00:16:28;;;;;;;40.13;24.97;;;8.00;99.90;;;;;;4971836;28;20436;-81
2021/11/24 00:18:54;;;;;;;39.90;25.27;;;7.90;99.90;;;;;;4989148;28;20388;-82
2021/11/24 00:21:19;;;;;;;38.15;24.67;;;7.90;99.90;;;;;;4968527;28;20398;-81
2021/11/24 00:23:46;;;;;;;39.30;25.48;;;7.80;99.90;;;;;;4986402;28;20421;-82
2021/11/24 00:26:13;;;;;;;40.97;24.52;;;7.90;99.90;;;;;;4954641;28;20395;-82
2021/11/24 00:28:39;;;;;;;40.87;25.73;;;7.90;99.90;;;;;;4954102;28;20858;-82
2021/11/24 00:31:06;;;;;;;41.77;25.47;;;7.80;99.90;;;;;;4978305;28;20377;-81
2021/11/24 00:33:32;;;;;;;39.92;25.42;;;7.80;99.90;;;;;;4990455;28;20409;-83
2021/11/24 00:35:59;;;;;;;38.60;24.15;;;7.80;99.90;;;;;;4975724;28;20449;-81
2021/11/24 00:38:25;;;;;;;39.92;25.20;;;7.80;99.90;;;;;;4986406;28;20929;-82
2021/11/24 00:40:51;;;;;;;37.95;24.00;;;7.80;99.90;;;;;;4972836;28;20426;-81
2021/11/24 00:43:16;;;;;;;40.83;24.45;;;7.80;99.90;;;;;;4971387;28;20467;-81
2021/11/24 00:45:42;;;;;;;41.83;25.55;;;7.80;99.90;;;;;;4972431;28;20397;-81
2021/11/24 00:48:08;;;;;;;37.13;23.50;;;7.70;99.90;;;;;;4970786;28;20765;-82
2021/11/24 00:50:34;;;;;;;40.05;23.33;;;7.80;99.90;;;;;;4981005;28;20393;-81
2021/11/24 00:52:59;;;;;;;41.80;24.10;;;7.70;99.90;;;;;;4988618;28;20887;-81
2021/11/24 00:55:25;;;;;;;38.53;24.57;;;7.70;99.90;;;;;;4977214;28;20396;-82
2021/11/24 00:57:51;;;;;;;38.20;23.83;;;7.70;99.90;;;;;;4982641;28;20410;-81
2021/11/24 01:00:17;;;;;;;40.60;23.85;;;7.70;99.90;;;;;;4970853;28;20426;-81
2021/11/24 01:02:45;;;;;;;40.42;24.40;;;7.70;99.90;;;;;;4984225;28;20780;-81
2021/11/24 01:05:11;;;;;;;39.92;24.15;;;7.60;99.90;;;;;;4990410;28;20468;-82
2021/11/24 01:07:37;;;;;;;37.92;23.83;;;7.70;99.90;;;;;;4972834;28;21518;-81
2021/11/24 01:10:05;;;;;;;34.03;22.63;;;7.70;99.90;;;;;;4983727;28;20453;-82
2021/11/24 01:12:32;;;;;;;36.38;21.35;;;7.80;99.90;;;;;;4985514;28;20382;-82
2021/11/24 01:14:57;;;;;;;36.05;21.92;;;7.80;99.90;;;;;;4989812;28;20393;-81
2021/11/24 01:17:23;;;;;;;35.45;21.33;;;7.80;99.90;;;;;;4989704;28;20377;-82
2021/11/24 01:19:49;;;;;;;34.67;21.63;;;7.80;99.90;;;;;;4987111;28;20397;-81
2021/11/24 01:22:15;;;;;;;36.58;21.98;;;7.80;99.90;;;;;;4970598;28;20398;-81
2021/11/24 01:24:41;;;;;;;33.75;20.95;;;7.70;99.90;;;;;;4971322;28;20442;-81
2021/11/24 01:27:07;;;;;;;35.63;22.08;;;7.80;99.90;;;;;;4953422;28;20722;-82
2021/11/24 01:29:33;;;;;;;35.88;21.92;;;7.70;99.90;;;;;;4985866;28;20380;-82
2021/11/24 01:31:59;;;;;;;34.83;20.70;;;7.70;99.90;;;;;;4971629;28;20477;-82
2021/11/24 01:34:24;;;;;;;33.75;20.88;;;7.80;99.90;;;;;;4989138;28;20464;-81
2021/11/24 01:36:50;;;;;;;31.85;20.40;;;7.90;99.90;;;;;;4989523;28;20412;-82
2021/11/24 01:39:16;;;;;;;36.42;21.95;;;7.80;99.90;;;;;;4987721;28;20389;-82
2021/11/24 01:41:42;;;;;;;34.42;21.45;;;7.70;99.90;;;;;;4989827;28;20396;-82
2021/11/24 01:44:22;;;;;;;35.00;21.60;;;7.70;99.90;;;;;;4986417;28;20416;-82
2021/11/24 01:46:53;;;;;;;32.15;21.17;;;7.60;99.90;;;;;;4952482;28;20393;-80
2021/11/24 01:49:21;;;;;;;30.33;19.90;;;7.60;99.90;;;;;;4969783;28;20395;-81
2021/11/24 01:51:46;;;;;;;32.78;20.38;;;7.60;99.90;;;;;;4963203;28;20389;-81
2021/11/24 01:54:14;;;;;;;30.10;19.48;;;7.60;99.90;;;;;;4973058;28;20397;-81
2021/11/24 01:56:40;;;;;;;29.00;19.17;;;7.60;99.90;;;;;;4970002;28;20386;-82
2021/11/24 01:59:09;;;;;;;25.52;18.15;;;7.60;99.90;;;;;;4961744;28;20737;-81
2021/11/24 02:01:35;;;;;;;32.45;19.98;;;7.60;99.90;;;;;;4964529;28;20761;-82
2021/11/24 02:04:01;;;;;;;31.50;20.63;;;7.60;99.90;;;;;;4953010;28;20423;-82
2021/11/24 02:06:27;;;;;;;27.92;18.85;;;7.50;99.90;;;;;;4984761;28;20386;-81
2021/11/24 02:08:52;;;;;;;26.35;19.13;;;7.50;99.90;;;;;;4973282;28;20401;-82
2021/11/24 02:11:18;;;;;;;26.30;17.90;;;7.50;99.90;;;;;;4974611;28;20409;-82
2021/11/24 02:13:44;;;;;;;25.33;17.80;;;7.60;99.90;;;;;;4976378;28;20741;-82
2021/11/24 02:16:10;;;;;;;25.63;17.47;;;7.60;99.90;;;;;;4976402;28;20382;-82
2021/11/24 02:18:35;;;;;;;28.63;18.30;;;7.70;99.90;;;;;;4979696;28;20413;-82
2021/11/24 02:21:01;;;;;;;25.30;17.45;;;7.70;99.90;;;;;;4977331;28;20397;-82
2021/11/24 02:23:27;;;;;;;26.35;17.92;;;7.70;99.90;;;;;;4976917;28;21009;-83
2021/11/24 02:25:52;;;;;;;28.33;17.80;;;7.70;99.90;;;;;;4976356;28;20740;-82
2021/11/24 02:28:19;;;;;;;25.13;17.60;;;7.70;99.90;;;;;;4980278;28;20445;-82
2021/11/24 02:30:44;;;;;;;29.20;17.80;;;7.70;99.90;;;;;;4991871;28;20411;-82
2021/11/24 02:33:12;;;;;;;27.43;17.87;;;7.80;99.90;;;;;;4994879;28;20891;-82
2021/11/24 02:35:41;;;;;;;28.77;18.00;;;7.70;99.90;;;;;;4977926;28;20411;-82
2021/11/24 02:38:07;;;;;;;25.42;17.52;;;7.80;99.90;;;;;;4991623;28;20412;-82
2021/11/24 02:40:34;;;;;;;26.17;17.35;;;7.80;99.90;;;;;;4988862;28;20410;-83
2021/11/24 02:43:00;;;;;;;22.05;15.88;;;7.70;99.90;;;;;;4976114;28;21353;-82
2021/11/24 02:45:27;;;;;;;24.13;16.85;;;7.80;99.90;;;;;;4958868;28;20390;-82
2021/11/24 02:47:53;;;;;;;28.53;17.37;;;7.80;99.90;;;;;;4976072;28;20594;-81
2021/11/24 02:50:19;;;;;;;25.00;17.17;;;7.80;99.90;;;;;;4975811;28;20861;-82
2021/11/24 02:52:45;;;;;;;22.77;16.27;;;7.80;99.90;;;;;;4977521;28;20477;-82
2021/11/24 02:55:13;;;;;;;28.98;17.17;;;7.80;99.90;;;;;;4976069;28;20914;-82
2021/11/24 02:57:41;;;;;;;24.00;16.58;;;7.70;99.90;;;;;;4990394;28;20390;-82
2021/11/24 03:00:25;;;;;;;25.92;16.83;;;7.70;99.90;;;;;;4958692;28;20408;-82
2021/11/24 03:02:51;;;;;;;30.15;17.92;;;7.70;99.90;;;;;;4959016;28;20497;-81
2021/11/24 03:05:21;;;;;;;27.20;17.63;;;7.70;99.90;;;;;;4959398;28;20967;-81
2021/11/24 03:07:48;;;;;;;28.77;18.15;;;7.60;99.90;;;;;;4970634;28;20404;-82
2021/11/24 03:10:15;;;;;;;26.33;16.75;;;7.70;99.90;;;;;;4979869;28;20896;-82
2021/11/24 03:12:40;;;;;;;27.42;17.85;;;7.70;99.90;;;;;;4958188;28;20390;-82
2021/11/24 03:15:07;;;;;;;30.67;19.02;;;7.70;99.90;;;;;;4975734;28;20394;-82
2021/11/24 03:17:34;;;;;;;28.23;18.75;;;7.70;99.90;;;;;;4993395;28;20385;-82
2021/11/24 03:20:00;;;;;;;24.63;17.58;;;7.70;99.90;;;;;;4983864;28;20486;-81
2021/11/24 03:22:27;;;;;;;30.90;19.17;;;7.70;99.90;;;;;;4954578;28;20829;-80
2021/11/24 03:24:55;;;;;;;28.40;18.20;;;7.70;99.90;;;;;;4973465;28;20410;-81
2021/11/24 03:27:27;;;;;;;27.92;18.67;;;7.70;99.90;;;;;;4974191;28;20383;-81
2021/11/24 03:29:53;;;;;;;30.80;19.17;;;7.70;99.90;;;;;;4974347;28;20388;-82
2021/11/24 03:32:20;;;;;;;31.17;18.98;;;7.60;99.90;;;;;;4985547;28;20391;-81
2021/11/24 03:34:46;;;;;;;30.10;18.85;;;7.60;99.90;;;;;;4972616;28;20453;-82
2021/11/24 03:37:12;;;;;;;27.63;18.15;;;7.60;99.90;;;;;;4989889;28;20405;-82
2021/11/24 03:39:38;;;;;;;29.75;18.50;;;7.70;99.90;;;;;;4973748;28;20931;-81
2021/11/24 03:42:04;;;;;;;29.60;18.58;;;7.70;99.90;;;;;;4972438;28;20915;-81
2021/11/24 03:44:30;;;;;;;27.27;17.88;;;7.70;99.90;;;;;;4972587;28;20446;-81
2021/11/24 03:46:56;;;;;;;28.67;18.35;;;7.60;99.90;;;;;;4972290;28;20392;-82
2021/11/24 03:49:21;;;;;;;28.97;18.33;;;7.70;99.90;;;;;;4971555;28;20407;-82
2021/11/24 03:51:49;;;;;;;27.97;17.53;;;7.70;99.90;;;;;;4987847;28;20405;-82
2021/11/24 03:54:14;;;;;;;27.30;17.70;;;7.80;99.90;;;;;;4989580;28;20400;-82
2021/11/24 03:56:40;;;;;;;26.85;17.20;;;7.80;99.90;;;;;;4989800;28;20393;-82
2021/11/24 03:59:06;;;;;;;27.30;18.07;;;7.80;99.90;;;;;;4973811;28;20417;-81
2021/11/24 04:01:31;;;;;;;28.40;17.70;;;7.70;99.90;;;;;;4972071;28;20387;-82
2021/11/24 04:03:57;;;;;;;25.83;17.17;;;7.80;99.90;;;;;;4986164;28;20977;-81
2021/11/24 04:06:26;;;;;;;24.55;16.65;;;7.80;99.90;;;;;;4958954;28;20403;-81
2021/11/24 04:08:52;;;;;;;24.83;16.88;;;7.80;99.90;;;;;;4989625;28;20455;-81
2021/11/24 04:11:18;;;;;;;21.45;15.70;;;7.80;99.90;;;;;;4991109;28;20412;-81
2021/11/24 04:13:43;;;;;;;23.20;15.50;;;7.80;99.90;;;;;;4973746;28;20390;-82
2021/11/24 04:16:09;;;;;;;23.70;15.53;;;7.80;99.90;;;;;;4971644;28;21209;-81
2021/11/24 04:18:35;;;;;;;24.20;16.27;;;7.70;99.90;;;;;;4982823;28;20476;-81
2021/11/24 04:21:01;;;;;;;21.92;15.40;;;7.70;99.90;;;;;;4990923;28;20397;-81
2021/11/24 04:23:27;;;;;;;21.45;15.60;;;7.70;99.90;;;;;;4990963;28;20600;-81
2021/11/24 04:25:53;;;;;;;21.50;15.23;;;7.70;99.90;;;;;;4989034;28;20389;-81
2021/11/24 04:28:19;;;;;;;24.92;15.70;;;7.70;99.90;;;;;;4990278;28;20396;-82
2021/11/24 04:30:44;;;;;;;22.48;15.65;;;7.70;99.90;;;;;;4971672;28;20737;-81
2021/11/24 04:33:10;;;;;;;24.75;16.40;;;7.70;99.90;;;;;;4971111;28;20390;-81
2021/11/24 04:35:36;;;;;;;23.77;15.95;;;7.70;99.90;;;;;;4986498;28;20419;-81
2021/11/24 04:38:02;;;;;;;25.52;16.67;;;7.70;99.90;;;;;;4979689;28;20388;-82
2021/11/24 04:40:28;;;;;;;22.83;16.13;;;7.80;99.90;;;;;;4989363;28;20391;-83
2021/11/24 04:42:54;;;;;;;23.97;16.87;;;7.90;99.90;;;;;;4988932;28;20388;-82
2021/11/24 04:45:21;;;;;;;26.10;17.08;;;7.80;99.90;;;;;;4989064;28;20405;-82
2021/11/24 04:47:46;;;;;;;27.70;16.47;;;7.80;99.90;;;;;;4990054;28;20389;-82
2021/11/24 04:50:13;;;;;;;26.73;17.23;;;7.90;99.90;;;;;;4989811;28;20411;-81
2021/11/24 04:52:39;;;;;;;28.73;17.85;;;7.90;99.90;;;;;;4979951;28;20893;-81
2021/11/24 04:55:06;;;;;;;31.13;18.67;;;7.80;99.90;;;;;;4959528;28;20402;-82
2021/11/24 04:57:32;;;;;;;26.63;18.10;;;7.80;99.90;;;;;;4971290;28;20398;-82
2021/11/24 04:59:57;;;;;;;22.45;16.45;;;7.80;99.90;;;;;;4968756;28;20385;-82
2021/11/24 05:02:23;;;;;;;31.00;18.23;;;7.90;99.90;;;;;;4972386;28;20447;-82
2021/11/24 05:04:49;;;;;;;28.40;18.60;;;7.80;99.90;;;;;;4990286;28;20470;-82
2021/11/24 05:07:14;;;;;;;27.70;18.43;;;7.80;99.90;;;;;;4983722;28;20407;-82
2021/11/24 05:09:40;;;;;;;26.98;17.88;;;7.80;99.90;;;;;;4975833;28;20396;-82
2021/11/24 05:12:06;;;;;;;26.10;16.63;;;7.80;99.90;;;;;;4990190;28;20380;-82
2021/11/24 05:14:35;;;;;;;26.73;17.50;;;7.80;99.90;;;;;;4971369;28;20444;-83
2021/11/24 05:17:05;;;;;;;31.25;18.00;;;7.80;99.90;;;;;;4986212;28;20396;-83
2021/11/24 05:19:32;;;;;;;25.77;17.20;;;7.80;99.90;;;;;;4989975;28;20462;-82
2021/11/24 05:21:59;;;;;;;26.77;16.97;;;7.80;99.90;;;;;;4986798;28;20407;-83
2021/11/24 05:24:25;;;;;;;26.13;17.17;;;7.90;99.90;;;;;;4977901;28;20404;-84
2021/11/24 05:26:51;;;;;;;24.53;17.53;;;7.90;99.90;;;;;;4987772;28;20384;-83
2021/11/24 05:29:17;;;;;;;22.13;15.70;;;7.80;99.90;;;;;;4988420;28;20384;-83
2021/11/24 05:31:43;;;;;;;26.80;16.73;;;7.90;99.90;;;;;;4990257;28;20381;-81
2021/11/24 05:34:09;;;;;;;25.30;16.00;;;7.90;99.90;;;;;;4972251;28;20385;-82
2021/11/24 05:36:35;;;;;;;24.77;16.67;;;7.90;99.90;;;;;;4989708;28;20401;-82
2021/11/24 05:39:06;;;;;;;22.40;16.38;;;7.90;99.90;;;;;;4976134;28;20401;-81
2021/11/24 05:41:32;;;;;;;26.75;17.75;;;7.90;99.90;;;;;;4971900;28;20397;-81
2021/11/24 05:44:14;;;;;;;25.75;17.25;;;7.80;99.90;;;;;;4976766;28;20414;-82
2021/11/24 05:46:44;;;;;;;24.50;16.95;;;7.80;99.90;;;;;;4989975;28;20858;-82
2021/11/24 05:49:10;;;;;;;27.35;17.63;;;7.80;99.90;;;;;;4962944;28;20458;-83
2021/11/24 05:51:37;;;;;;;24.45;17.20;;;7.80;99.90;;;;;;4952674;28;20425;-82
2021/11/24 05:54:04;;;;;;;25.63;18.33;;;7.80;99.90;;;;;;4952957;28;20772;-82
2021/11/24 05:56:29;;;;;;;25.73;18.23;;;7.70;99.90;;;;;;4954806;28;20775;-81
2021/11/24 05:58:58;;;;;;;25.85;18.85;;;7.80;99.90;;;;;;4970144;28;21300;-82
2021/11/24 06:01:24;;;;;;;26.92;17.85;;;7.80;99.90;;;;;;4979565;28;20377;-83
2021/11/24 06:03:49;;;;;;;25.92;17.80;;;7.80;99.90;;;;;;4989314;28;20421;-82
2021/11/24 06:06:15;;;;;;;23.55;17.48;;;7.80;99.90;;;;;;4989265;28;20743;-81
2021/11/24 06:08:41;;;;;;;25.20;18.60;;;7.70;99.90;;;;;;4989290;28;20380;-81
2021/11/24 06:11:06;;;;;;;24.08;17.48;;;7.80;99.90;;;;;;4989376;28;20882;-81
2021/11/24 06:13:32;;;;;;;25.17;17.80;;;7.80;99.90;;;;;;4989558;28;20380;-80
2021/11/24 06:15:58;;;;;;;26.53;17.77;;;7.70;99.90;;;;;;4997800;28;20371;-82
2021/11/24 06:18:25;;;;;;;27.42;17.70;;;7.80;99.90;;;;;;4991252;28;20383;-81
2021/11/24 06:20:52;;;;;;;23.92;16.77;;;7.80;99.90;;;;;;5009088;28;20395;-80
2021/11/24 06:23:18;;;;;;;24.80;17.50;;;7.80;99.90;;;;;;5008886;28;20885;-82
2021/11/24 06:25:43;;;;;;;24.30;17.40;;;7.90;99.90;;;;;;5008171;28;20383;-82
2021/11/24 06:28:09;;;;;;;22.65;17.75;;;7.90;99.90;;;;;;5008792;28;20414;-82
2021/11/24 06:30:35;;;;;;;24.85;16.70;;;7.90;99.90;;;;;;5008937;28;20411;-81
2021/11/24 06:33:01;;;;;;;24.08;18.00;;;7.90;99.90;;;;;;5007759;28;20383;-82
2021/11/24 06:35:27;;;;;;;24.98;18.42;;;7.90;99.90;;;;;;5007447;28;21004;-82
2021/11/24 06:37:52;;;;;;;26.53;18.00;;;7.90;99.90;;;;;;4990309;28;20453;-82
2021/11/24 06:40:18;;;;;;;27.50;18.77;;;7.80;99.90;;;;;;5007602;28;20592;-82
2021/11/24 06:42:44;;;;;;;23.03;17.70;;;7.80;99.90;;;;;;5008336;28;21179;-82
2021/11/24 06:45:10;;;;;;;28.70;19.20;;;7.80;99.90;;;;;;4991095;28;20398;-82
2021/11/24 06:47:38;;;;;;;25.30;17.88;;;7.80;99.90;;;;;;5009047;28;20383;-82
2021/11/24 06:50:05;;;;;;;27.85;18.63;;;7.80;99.90;;;;;;4990910;28;20387;-82
2021/11/24 06:52:31;;;;;;;24.90;18.10;;;7.80;99.90;;;;;;4990739;28;20433;-82
2021/11/24 06:54:56;;;;;;;23.83;18.13;;;7.90;99.90;;;;;;4991902;28;20953;-83
2021/11/24 06:57:22;;;;;;;26.40;17.63;;;7.80;99.90;;;;;;5012263;28;20371;-83
2021/11/24 06:59:48;;;;;;;22.90;16.85;;;7.90;99.90;;;;;;5012092;28;20383;-82
2021/11/24 07:02:14;;;;;;;23.88;16.35;;;7.90;99.90;;;;;;5011983;28;20398;-83
2021/11/24 07:04:39;;;;;;;22.80;15.83;;;7.90;99.90;;;;;;5012058;28;20414;-82
2021/11/24 07:07:05;;;;;;;23.37;16.53;;;7.90;99.90;;;;;;5011815;28;20402;-83
2021/11/24 07:09:31;;;;;;;22.93;16.20;;;7.80;99.90;;;;;;5012047;28;20379;-82
2021/11/24 07:11:57;;;;;;;22.85;15.90;;;7.90;99.90;;;;;;5011578;28;20465;-84
2021/11/24 07:14:23;;;;;;;21.42;15.45;;;7.90;99.90;;;;;;5011683;28;20376;-83
2021/11/24 07:16:48;;;;;;;21.05;15.80;;;7.90;99.90;;;;;;4994188;28;20394;-83
2021/11/24 07:19:16;;;;;;;20.80;16.35;;;7.90;99.90;;;;;;5011702;28;20375;-83
2021/11/24 07:21:47;;;;;;;19.92;15.55;;;7.80;99.90;;;;;;5011454;28;20881;-82
2021/11/24 07:24:15;;;;;;;23.58;16.50;;;7.90;99.90;;;;;;4993968;28;20419;-83
2021/11/24 07:26:41;;;;;;;24.08;16.42;;;8.00;99.90;;;;;;5011770;28;20749;-82
2021/11/24 07:29:06;;;;;;;22.25;16.35;;;8.00;99.90;;;;;;4994242;28;20877;-81
2021/11/24 07:31:32;;;;;;;22.80;16.50;;;8.00;99.90;;;;;;5011077;28;20387;-81
2021/11/24 07:33:58;;;;;;;22.42;16.08;;;8.00;99.90;;;;;;4994847;28;20447;-82
2021/11/24 07:36:23;;;;;;;21.58;16.50;;;8.00;99.90;;;;;;4986669;28;20474;-82
2021/11/24 07:38:49;;;;;;;21.20;15.97;;;8.10;99.90;;;;;;4955269;28;20386;-82
2021/11/24 07:41:15;;;;;;;25.00;18.90;;;8.10;99.90;;;;;;4986892;28;20390;-81
2021/11/24 07:43:40;;;;;;;21.77;16.52;;;8.20;99.90;;;;;;4986993;28;21185;-82
2021/11/24 07:46:06;;;;;;;22.27;17.00;;;8.30;99.90;;;;;;4972104;28;20498;-83
2021/11/24 07:48:32;;;;;;;21.87;16.17;;;8.30;99.90;;;;;;4972432;28;20401;-83
2021/11/24 07:50:57;;;;;;;20.10;15.80;;;8.40;99.90;;;;;;4959772;28;20393;-83
2021/11/24 07:53:23;;;;;;;20.60;15.50;;;8.40;99.90;;;;;;4990649;28;21136;-82
2021/11/24 07:55:49;;;;;;;27.05;18.42;;;8.40;99.90;;;;;;4985905;28;20441;-82
2021/11/24 07:58:18;;;;;;;26.08;18.83;;;8.40;99.90;;;;;;4991618;28;20377;-82
2021/11/24 08:00:44;;;;;;;27.17;19.52;;;8.40;99.90;;;;;;4974054;28;20511;-82
2021/11/24 08:03:09;;;;;;;25.25;19.58;;;8.50;99.90;;;;;;4973837;28;20949;-82
2021/11/24 08:05:35;;;;;;;26.77;19.97;;;8.40;99.90;;;;;;4991465;28;20413;-82
2021/11/24 08:08:01;;;;;;;30.40;20.30;;;8.40;99.90;;;;;;4990784;28;20895;-82
2021/11/24 08:10:28;;;;;;;31.20;21.83;;;8.40;99.90;;;;;;4991266;28;20384;-82
2021/11/24 08:12:54;;;;;;;29.52;20.63;;;8.30;99.90;;;;;;4991780;28;20455;-81
2021/11/24 08:15:20;;;;;;;28.40;21.40;;;8.30;99.90;;;;;;4973887;28;20784;-81
2021/11/24 08:17:46;;;;;;;25.88;19.90;;;8.40;99.90;;;;;;4991416;28;20376;-82
2021/11/24 08:20:12;;;;;;;33.63;20.30;;;8.40;99.90;;;;;;4991166;28;20396;-82
2021/11/24 08:22:37;;;;;;;29.17;20.00;;;8.40;99.90;;;;;;4973553;28;20895;-82
2021/11/24 08:25:04;;;;;;;30.00;21.23;;;8.40;99.90;;;;;;4991215;28;20407;-82
2021/11/24 08:27:29;;;;;;;30.02;20.83;;;8.30;99.90;;;;;;4991512;28;20381;-81
2021/11/24 08:29:55;;;;;;;29.67;20.77;;;8.30;99.90;;;;;;4990991;28;20945;-82
2021/11/24 08:32:21;;;;;;;29.53;20.57;;;8.30;99.90;;;;;;4973814;28;20914;-82
2021/11/24 08:34:47;;;;;;;26.90;19.50;;;8.40;99.90;;;;;;4973588;28;20464;-82
2021/11/24 08:37:12;;;;;;;27.58;19.92;;;8.40;99.90;;;;;;4972561;28;20446;-81
2021/11/24 08:39:40;;;;;;;27.75;19.67;;;8.50;99.90;;;;;;4990856;28;20867;-82
2021/11/24 08:42:08;;;;;;;28.02;20.00;;;8.40;99.90;;;;;;4990790;28;20389;-82
2021/11/24 08:44:33;;;;;;;27.13;19.80;;;8.60;99.90;;;;;;4980862;28;20971;-82
2021/11/24 08:46:59;;;;;;;26.25;19.13;;;8.60;99.90;;;;;;4990721;28;20404;-82
2021/11/24 08:49:25;;;;;;;27.48;19.95;;;8.70;99.90;;;;;;4990590;28;20376;-82
2021/11/24 08:51:51;;;;;;;29.07;20.07;;;8.70;99.90;;;;;;4987229;28;20393;-82
2021/11/24 08:54:16;;;;;;;26.07;19.27;;;8.70;99.90;;;;;;4991046;28;20387;-82
2021/11/24 08:56:43;;;;;;;29.13;20.05;;;8.70;99.90;;;;;;4974112;28;20449;-82
2021/11/24 08:59:09;;;;;;;25.98;19.25;;;8.70;99.90;;;;;;4953968;28;20398;-82
2021/11/24 09:01:37;;;;;;;27.08;19.55;;;8.70;99.90;;;;;;4975632;28;20404;-82
2021/11/24 09:04:03;;;;;;;25.27;19.58;;;8.60;99.90;;;;;;4972286;28;20408;-82
2021/11/24 09:06:29;;;;;;;26.77;19.87;;;8.60;99.90;;;;;;4979164;28;20447;-82
2021/11/24 09:08:55;;;;;;;27.40;20.63;;;8.60;99.90;;;;;;4972851;28;20381;-82
2021/11/24 09:11:21;;;;;;;25.30;19.13;;;8.60;99.90;;;;;;4976615;28;20391;-82
2021/11/24 09:13:47;;;;;;;26.65;19.13;;;8.70;99.90;;;;;;4970307;28;20529;-82
2021/11/24 09:16:13;;;;;;;25.80;18.87;;;8.80;99.90;;;;;;4959292;28;20436;-82
2021/11/24 09:18:40;;;;;;;27.13;19.95;;;8.80;99.90;;;;;;4989202;28;20389;-81
2021/11/24 09:21:06;;;;;;;23.77;18.13;;;8.90;99.90;;;;;;4976270;28;20404;-83
2021/11/24 09:23:32;;;;;;;25.48;18.20;;;8.90;99.90;;;;;;4989854;28;20763;-81
2021/11/24 09:26:15;;;;;;;27.50;18.93;;;8.90;99.90;;;;;;4989412;28;20579;-82
2021/11/24 09:28:41;;;;;;;26.17;18.17;;;8.90;99.90;;;;;;4990240;28;20938;-82
2021/11/24 09:31:07;;;;;;;21.95;17.00;;;9.00;99.90;;;;;;4971429;28;20910;-82
2021/11/24 09:33:34;;;;;;;24.52;18.15;;;9.00;99.90;;;;;;4988266;28;20389;-82
2021/11/24 09:36:01;;;;;;;23.98;18.17;;;9.00;99.90;;;;;;4969564;28;20795;-82
2021/11/24 09:38:27;;;;;;;21.60;16.43;;;9.10;99.90;;;;;;4989233;28;20458;-83
2021/11/24 09:40:56;;;;;;;19.60;16.40;;;9.10;99.90;;;;;;4972182;28;20392;-83
2021/11/24 09:43:24;;;;;;;21.17;16.73;;;9.20;99.90;;;;;;4960203;28;20442;-82
2021/11/24 09:45:51;;;;;;;21.17;15.77;;;9.20;99.90;;;;;;4955393;28;20437;-82
2021/11/24 09:48:19;;;;;;;21.80;16.33;;;9.30;99.90;;;;;;4972495;28;20397;-82
2021/11/24 09:50:47;;;;;;;21.85;16.20;;;9.30;99.90;;;;;;4989839;28;20409;-81
2021/11/24 09:53:14;;;;;;;19.25;15.60;;;9.30;99.90;;;;;;4989444;28;20389;-82
2021/11/24 09:55:40;;;;;;;19.65;15.23;;;9.40;99.90;;;;;;4972183;28;20401;-81
2021/11/24 09:58:08;;;;;;;17.08;14.20;;;9.40;99.90;;;;;;4971828;28;20923;-83
2021/11/24 10:00:35;;;;;;;19.70;14.00;;;9.40;99.90;;;;;;4971838;28;20373;-82
2021/11/24 10:03:02;;;;;;;17.85;13.93;;;9.50;99.90;;;;;;4971864;28;20482;-82
2021/11/24 10:05:29;;;;;;;16.57;13.47;;;9.40;99.90;;;;;;4989475;28;20954;-81
2021/11/24 10:07:55;;;;;;;20.65;14.05;;;9.30;99.90;;;;;;4971804;28;20500;-81
2021/11/24 10:10:22;;;;;;;19.77;13.27;;;9.30;99.90;;;;;;4988013;28;20748;-83
2021/11/24 10:12:48;;;;;;;18.25;14.30;;;9.20;99.90;;;;;;4971658;28;20396;-82
2021/11/24 10:15:35;;;;;;;18.83;14.60;;;9.10;99.90;;;;;;4971815;28;20439;-83
2021/11/24 10:18:25;;;;;;;19.30;14.18;;;9.10;99.90;;;;;;4971757;28;20399;-82
2021/11/24 10:21:09;;;;;;;20.33;14.40;;;9.20;99.90;;;;;;4989278;28;20793;-83
2021/11/24 10:23:41;;;;;;;18.45;13.93;;;9.30;99.90;;;;;;4989296;28;20409;-81
2021/11/24 10:26:20;;;;;;;15.30;12.20;;;9.50;99.90;;;;;;4989262;28;20384;-83
2021/11/24 10:28:54;;;;;;;15.35;11.80;;;9.60;99.90;;;;;;4989680;28;20393;-82
2021/11/24 10:31:27;;;;;;;14.05;11.52;;;9.50;99.90;;;;;;4992329;28;20503;-83
2021/11/24 10:33:54;;;;;;;17.00;12.93;;;9.50;99.90;;;;;;4993189;28;20731;-82
2021/11/24 10:36:19;;;;;;;14.93;12.07;;;9.50;99.90;;;;;;4975595;28;20381;-83
2021/11/24 10:38:48;;;;;;;15.05;11.93;;;9.50;99.90;;;;;;4992828;28;20399;-82
2021/11/24 10:41:27;;;;;;;16.45;12.35;;;9.50;99.90;;;;;;4993139;28;20377;-82
2021/11/24 10:43:53;;;;;;;16.30;12.95;;;9.50;99.90;;;;;;4992698;28;20460;-81
2021/11/24 10:46:23;;;;;;;14.63;12.50;;;9.50;99.90;;;;;;4992880;28;20381;-81
2021/11/24 10:49:17;;;;;;;16.65;13.30;;;9.60;99.90;;;;;;4993018;28;20384;-82
2021/11/24 10:51:43;;;;;;;15.10;12.27;;;9.60;99.90;;;;;;4992869;28;20384;-82
2021/11/24 10:54:16;;;;;;;15.43;11.48;;;9.60;99.90;;;;;;4992546;28;20393;-82
2021/11/24 10:57:00;;;;;;;16.60;11.52;;;9.60;99.90;;;;;;4992416;28;20385;-82
2021/11/24 10:59:26;;;;;;;14.05;11.45;;;9.50;99.90;;;;;;4974883;28;20752;-82
2021/11/24 11:01:52;;;;;;;14.33;11.33;;;9.60;99.90;;;;;;4974838;28;20397;-82
2021/11/24 11:04:18;;;;;;;15.52;12.35;;;9.60;99.90;;;;;;4992443;28;20403;-83
2021/11/24 11:06:44;;;;;;;15.65;12.50;;;9.60;99.90;;;;;;4992290;28;20389;-83
2021/11/24 11:09:10;;;;;;;13.17;10.80;;;9.60;99.90;;;;;;4991920;28;20403;-82
2021/11/24 11:11:39;;;;;;;12.48;9.70;;;9.50;99.90;;;;;;4993687;28;20381;-83
2021/11/24 11:14:21;;;;;;;13.15;10.23;;;9.60;99.90;;;;;;4994593;28;20388;-82
2021/11/24 11:16:55;;;;;;;12.85;9.85;;;9.70;99.90;;;;;;4993309;28;20467;-81
2021/11/24 11:19:49;;;;;;;13.80;10.85;;;9.80;99.90;;;;;;4992362;28;20930;-83
2021/11/24 11:22:19;;;;;;;12.93;10.98;;;9.60;99.90;;;;;;4976935;28;20515;-83
2021/11/24 11:24:44;;;;;;;12.40;10.00;;;9.60;99.90;;;;;;4991801;28;20452;-83
2021/11/24 11:27:10;;;;;;;11.93;10.52;;;9.60;99.90;;;;;;4992214;28;20412;-83
2021/11/24 11:29:36;;;;;;;14.27;11.07;;;9.70;99.90;;;;;;4974867;28;20951;-83
2021/11/24 11:32:05;;;;;;;13.20;10.35;;;9.90;99.90;;;;;;4991948;28;20783;-82
2021/11/24 11:34:31;;;;;;;12.27;10.57;;;10.00;99.90;;;;;;4980134;28;20552;-84
2021/11/24 11:36:58;;;;;;;11.30;10.10;;;10.00;99.90;;;;;;4981936;28;20480;-83
2021/11/24 11:39:25;;;;;;;12.67;10.30;;;10.10;99.90;;;;;;4981621;28;20964;-84
2021/11/24 11:41:51;;;;;;;11.38;10.15;;;10.10;99.90;;;;;;4997194;28;20751;-82
2021/11/24 11:44:18;;;;;;;11.80;9.70;;;10.10;99.90;;;;;;4981916;28;20479;-84
2021/11/24 11:46:49;;;;;;;11.82;10.18;;;10.20;99.90;;;;;;4981725;28;20827;-83
2021/11/24 11:49:18;;;;;;;11.30;9.82;;;10.20;99.90;;;;;;4991195;28;20887;-84
2021/11/24 11:51:47;;;;;;;12.68;9.95;;;10.10;99.90;;;;;;4990931;28;20381;-84
2021/11/24 11:54:26;;;;;;;11.70;8.88;;;10.20;99.90;;;;;;4990864;28;20400;-84
2021/11/24 11:56:52;;;;;;;9.77;8.32;;;10.20;99.90;;;;;;4989095;28;20412;-84
2021/11/24 11:59:20;;;;;;;10.40;8.60;;;10.10;99.90;;;;;;4991013;28;20408;-82
2021/11/24 12:01:46;;;;;;;11.32;7.80;;;10.00;99.90;;;;;;4988536;28;20397;-82
2021/11/24 12:04:17;;;;;;;9.85;7.68;;;10.00;99.90;;;;;;4991046;28;20569;-82
2021/11/24 12:06:53;;;;;;;10.45;8.18;;;10.00;99.90;;;;;;4990820;28;20412;-83
2021/11/24 12:09:39;;;;;;;11.40;8.50;;;10.00;99.90;;;;;;4981078;28;20397;-83
2021/11/24 12:12:13;;;;;;;9.82;8.50;;;9.90;99.90;;;;;;4990606;28;20382;-83
2021/11/24 12:14:57;;;;;;;9.82;8.82;;;9.80;99.90;;;;;;4981437;28;20420;-83
2021/11/24 12:17:50;;;;;;;10.48;8.98;;;9.80;99.90;;;;;;4990782;28;21164;-84
2021/11/24 12:20:16;;;;;;;11.60;8.88;;;9.90;99.90;;;;;;4989390;28;20899;-83
2021/11/24 12:25:20;;;;;;;10.60;9.50;;;9.90;99.90;;;;;;4990632;28;20416;-81
2021/11/24 12:27:58;;;;;;;12.00;10.17;;;9.80;99.90;;;;;;4976140;28;20393;-82
2021/11/24 12:30:54;;;;;;;13.40;10.63;;;9.80;99.90;;;;;;4980928;28;20396;-81
2021/11/24 12:33:31;;;;;;;16.80;12.27;;;9.70;99.90;;;;;;4988790;28;20468;-82
2021/11/24 12:36:08;;;;;;;14.20;11.77;;;9.50;99.90;;;;;;4970817;28;20891;-83
2021/11/24 12:38:38;;;;;;;16.67;12.60;;;9.40;99.90;;;;;;4972139;28;20388;-82
2021/11/24 12:41:17;;;;;;;16.88;12.95;;;9.30;99.90;;;;;;4990928;28;20389;-81
2021/11/24 12:43:47;;;;;;;16.58;13.80;;;9.30;99.90;;;;;;4990165;28;20419;-81